PWSweather.com
Personal Weather Stations
Station Observations
BMGB5962
BerguesFR 59380

BerguesFR 59380

Lat: 50.968, Lon: 2.440469

Elevation: 56

Station Type: Vantage Pro 2 Plus

Latest ConditionsUpdated 8:09:02 AM GMT+01:01 Saturday, Jan 18, 2020
Currently Today's Max Today's Min Today's Average
Temperature 36.9°F2.7°C 41.1°F5.1°C 36.6°F2.6°C 38.5°F3.6°C
Dew Point 36.0°F2.2°C 39.0°F3.9°C 35.0°F1.7°C 36.9°F2.7°C
Winds 2.0 mph WNW3.2 kmh WNW 11.0 mph -17.7 kmh - - 3.8 mph 6.1 kmh
Wind Gusts 15.0 mph24.1 kmh 30.0 mph48.3 kmh - -
Humidity 95% 95% 90% 94%
Pressure 30.23 in1023.7 mb 30.23 in1023.7 mb 30.11 in1019.6 mb -
Precipitation - 0.03 in0.8 mm - -
Hour Temp Dew Point Humidity Winds Wind Gusts Pressure Precip Precip Rate Daily Precip Total
08:09 AM 36.9°F2.7°C 36.0°F2.2°C 95% 2.0 mph WNW3.2 kmh WNW 15.0 mph24.1 kmh 30.23 in1023.7 mb 0.00 in0.0 mm 0.00 in0.0 mm 0.03 in0.8 mm
08:05 AM 37.0°F2.8°C 36.0°F2.2°C 95% 3.0 mph W4.8 kmh W 15.0 mph24.1 kmh 30.23 in1023.7 mb 0.00 in0.0 mm 0.00 in0.0 mm 0.03 in0.8 mm
08:00 AM 37.0°F2.8°C 36.0°F2.2°C 95% 4.0 mph WNW6.4 kmh WNW 15.0 mph24.1 kmh 30.23 in1023.7 mb 0.00 in0.0 mm 0.00 in0.0 mm 0.03 in0.8 mm
07:55 AM 37.0°F2.8°C 36.0°F2.2°C 95% 3.0 mph WSW4.8 kmh WSW 15.0 mph24.1 kmh 30.22 in1023.4 mb 0.00 in0.0 mm 0.00 in0.0 mm 0.03 in0.8 mm
07:49 AM 37.1°F2.8°C 36.0°F2.2°C 95% 2.0 mph WSW3.2 kmh WSW 15.0 mph24.1 kmh 30.22 in1023.4 mb 0.00 in0.0 mm 0.00 in0.0 mm 0.03 in0.8 mm
07:44 AM 37.2°F2.9°C 36.0°F2.2°C 95% 2.0 mph W3.2 kmh W 15.0 mph24.1 kmh 30.22 in1023.4 mb 0.00 in0.0 mm 0.00 in0.0 mm 0.03 in0.8 mm
07:39 AM 37.3°F2.9°C 36.0°F2.2°C 95% 4.0 mph WSW6.4 kmh WSW 15.0 mph24.1 kmh 30.22 in1023.4 mb 0.00 in0.0 mm 0.00 in0.0 mm 0.03 in0.8 mm
07:34 AM 37.3°F2.9°C 36.0°F2.2°C 95% 3.0 mph SW4.8 kmh SW 15.0 mph24.1 kmh 30.22 in1023.4 mb 0.00 in0.0 mm 0.00 in0.0 mm 0.03 in0.8 mm
07:29 AM 37.4°F3.0°C 36.0°F2.2°C 95% 3.0 mph W4.8 kmh W 15.0 mph24.1 kmh 30.21 in1023.0 mb 0.00 in0.0 mm 0.00 in0.0 mm 0.03 in0.8 mm
07:24 AM 37.5°F3.1°C 36.0°F2.2°C 95% 5.0 mph WSW8.0 kmh WSW 15.0 mph24.1 kmh 30.21 in1023.0 mb 0.00 in0.0 mm 0.00 in0.0 mm 0.03 in0.8 mm
07:19 AM 37.5°F3.1°C 36.0°F2.2°C 95% 3.0 mph SW4.8 kmh SW 15.0 mph24.1 kmh 30.21 in1023.0 mb 0.00 in0.0 mm 0.00 in0.0 mm 0.03 in0.8 mm
07:14 AM 37.5°F3.1°C 36.0°F2.2°C 95% 3.0 mph W4.8 kmh W 15.0 mph24.1 kmh 30.21 in1023.0 mb 0.00 in0.0 mm 0.00 in0.0 mm 0.03 in0.8 mm
07:09 AM 37.3°F2.9°C 36.0°F2.2°C 95% 4.0 mph W6.4 kmh W 15.0 mph24.1 kmh 30.21 in1023.0 mb 0.00 in0.0 mm 0.00 in0.0 mm 0.03 in0.8 mm
07:04 AM 37.2°F2.9°C 36.0°F2.2°C 95% 6.0 mph WSW9.7 kmh WSW 15.0 mph24.1 kmh 30.21 in1023.0 mb 0.00 in0.0 mm 0.00 in0.0 mm 0.03 in0.8 mm
06:59 AM 37.1°F2.8°C 36.0°F2.2°C 95% 3.0 mph WSW4.8 kmh WSW 15.0 mph24.1 kmh 30.20 in1022.7 mb 0.00 in0.0 mm 0.00 in0.0 mm 0.03 in0.8 mm
06:54 AM 37.0°F2.8°C 36.0°F2.2°C 95% 5.0 mph WSW8.0 kmh WSW 15.0 mph24.1 kmh 30.20 in1022.7 mb 0.00 in0.0 mm 0.00 in0.0 mm 0.03 in0.8 mm
06:49 AM 36.9°F2.7°C 36.0°F2.2°C 95% 3.0 mph W4.8 kmh W 15.0 mph24.1 kmh 30.20 in1022.7 mb 0.00 in0.0 mm 0.00 in0.0 mm 0.03 in0.8 mm
06:44 AM 36.7°F2.6°C 35.0°F1.7°C 95% 4.0 mph W6.4 kmh W 15.0 mph24.1 kmh 30.20 in1022.7 mb 0.00 in0.0 mm 0.00 in0.0 mm 0.03 in0.8 mm
06:39 AM 36.7°F2.6°C 35.0°F1.7°C 95% 3.0 mph W4.8 kmh W 15.0 mph24.1 kmh 30.20 in1022.7 mb 0.00 in0.0 mm 0.00 in0.0 mm 0.03 in0.8 mm
06:34 AM 36.6°F2.6°C 35.0°F1.7°C 95% 3.0 mph W4.8 kmh W 15.0 mph24.1 kmh 30.20 in1022.7 mb 0.00 in0.0 mm 0.00 in0.0 mm 0.03 in0.8 mm
06:29 AM 36.7°F2.6°C 35.0°F1.7°C 95% 4.0 mph WSW6.4 kmh WSW 15.0 mph24.1 kmh 30.19 in1022.4 mb 0.00 in0.0 mm 0.00 in0.0 mm 0.03 in0.8 mm
06:24 AM 36.8°F2.7°C 36.0°F2.2°C 95% 3.0 mph W4.8 kmh W 15.0 mph24.1 kmh 30.19 in1022.4 mb 0.00 in0.0 mm 0.00 in0.0 mm 0.03 in0.8 mm
06:19 AM 36.9°F2.7°C 36.0°F2.2°C 95% 3.0 mph WSW4.8 kmh WSW 15.0 mph24.1 kmh 30.19 in1022.4 mb 0.00 in0.0 mm 0.00 in0.0 mm 0.03 in0.8 mm
06:14 AM 37.0°F2.8°C 36.0°F2.2°C 95% 5.0 mph SW8.0 kmh SW 15.0 mph24.1 kmh 30.19 in1022.4 mb 0.00 in0.0 mm 0.00 in0.0 mm 0.03 in0.8 mm
06:09 AM 37.1°F2.8°C 36.0°F2.2°C 95% 2.0 mph WSW3.2 kmh WSW 15.0 mph24.1 kmh 30.19 in1022.4 mb 0.00 in0.0 mm 0.00 in0.0 mm 0.03 in0.8 mm
06:04 AM 37.0°F2.8°C 36.0°F2.2°C 95% 3.0 mph NW4.8 kmh NW 15.0 mph24.1 kmh 30.19 in1022.4 mb 0.00 in0.0 mm 0.00 in0.0 mm 0.03 in0.8 mm
05:59 AM 37.0°F2.8°C 36.0°F2.2°C 95% 2.0 mph WSW3.2 kmh WSW 15.0 mph24.1 kmh 30.19 in1022.4 mb 0.00 in0.0 mm 0.00 in0.0 mm 0.03 in0.8 mm
05:54 AM 36.9°F2.7°C 36.0°F2.2°C 95% 2.0 mph WSW3.2 kmh WSW 15.0 mph24.1 kmh 30.19 in1022.4 mb 0.00 in0.0 mm 0.00 in0.0 mm 0.03 in0.8 mm
05:49 AM 36.8°F2.7°C 36.0°F2.2°C 95% 2.0 mph WNW3.2 kmh WNW 15.0 mph24.1 kmh 30.18 in1022.0 mb 0.00 in0.0 mm 0.00 in0.0 mm 0.03 in0.8 mm
05:44 AM 36.9°F2.7°C 36.0°F2.2°C 95% 2.0 mph W3.2 kmh W 15.0 mph24.1 kmh 30.18 in1022.0 mb 0.00 in0.0 mm 0.00 in0.0 mm 0.03 in0.8 mm
05:39 AM 36.9°F2.7°C 36.0°F2.2°C 95% 5.0 mph SW8.0 kmh SW 15.0 mph24.1 kmh 30.18 in1022.0 mb 0.00 in0.0 mm 0.00 in0.0 mm 0.03 in0.8 mm
05:34 AM 37.0°F2.8°C 36.0°F2.2°C 95% 2.0 mph W3.2 kmh W 15.0 mph24.1 kmh 30.18 in1022.0 mb 0.00 in0.0 mm 0.00 in0.0 mm 0.03 in0.8 mm
05:29 AM 37.0°F2.8°C 36.0°F2.2°C 94% 1.0 mph WSW1.6 kmh WSW 15.0 mph24.1 kmh 30.18 in1022.0 mb 0.00 in0.0 mm 0.00 in0.0 mm 0.03 in0.8 mm
05:24 AM 37.1°F2.8°C 36.0°F2.2°C 95% 2.0 mph WSW3.2 kmh WSW 15.0 mph24.1 kmh 30.17 in1021.7 mb 0.00 in0.0 mm 0.00 in0.0 mm 0.03 in0.8 mm
05:19 AM 37.3°F2.9°C 36.0°F2.2°C 95% 3.0 mph WSW4.8 kmh WSW 15.0 mph24.1 kmh 30.17 in1021.7 mb 0.00 in0.0 mm 0.00 in0.0 mm 0.03 in0.8 mm
05:14 AM 37.3°F2.9°C 36.0°F2.2°C 95% 2.0 mph W3.2 kmh W 15.0 mph24.1 kmh 30.17 in1021.7 mb 0.00 in0.0 mm 0.00 in0.0 mm 0.03 in0.8 mm
05:09 AM 37.4°F3.0°C 36.0°F2.2°C 95% 3.0 mph W4.8 kmh W 15.0 mph24.1 kmh 30.18 in1022.0 mb 0.00 in0.0 mm 0.00 in0.0 mm 0.03 in0.8 mm
05:04 AM 37.4°F3.0°C 36.0°F2.2°C 95% 2.0 mph WSW3.2 kmh WSW 15.0 mph24.1 kmh 30.17 in1021.7 mb 0.00 in0.0 mm 0.00 in0.0 mm 0.03 in0.8 mm
04:59 AM 37.4°F3.0°C 36.0°F2.2°C 95% 2.0 mph WSW3.2 kmh WSW 15.0 mph24.1 kmh 30.18 in1022.0 mb 0.00 in0.0 mm 0.00 in0.0 mm 0.03 in0.8 mm
04:54 AM 37.3°F2.9°C 36.0°F2.2°C 94% 3.0 mph W4.8 kmh W 15.0 mph24.1 kmh 30.18 in1022.0 mb 0.00 in0.0 mm 0.00 in0.0 mm 0.03 in0.8 mm
04:49 AM 37.4°F3.0°C 36.0°F2.2°C 94% 2.0 mph WSW3.2 kmh WSW 15.0 mph24.1 kmh 30.17 in1021.7 mb 0.00 in0.0 mm 0.00 in0.0 mm 0.03 in0.8 mm
04:44 AM 37.5°F3.1°C 36.0°F2.2°C 94% 2.0 mph SSW3.2 kmh SSW 15.0 mph24.1 kmh 30.17 in1021.7 mb 0.00 in0.0 mm 0.00 in0.0 mm 0.03 in0.8 mm
04:39 AM 37.7°F3.2°C 36.0°F2.2°C 94% 3.0 mph SW4.8 kmh SW 15.0 mph24.1 kmh 30.17 in1021.7 mb 0.00 in0.0 mm 0.00 in0.0 mm 0.03 in0.8 mm
04:34 AM 37.7°F3.2°C 36.0°F2.2°C 94% 1.0 mph SW1.6 kmh SW 15.0 mph24.1 kmh 30.17 in1021.7 mb 0.00 in0.0 mm 0.00 in0.0 mm 0.03 in0.8 mm
04:29 AM 37.7°F3.2°C 36.0°F2.2°C 94% 2.0 mph WSW3.2 kmh WSW 15.0 mph24.1 kmh 30.17 in1021.7 mb 0.00 in0.0 mm 0.00 in0.0 mm 0.03 in0.8 mm
04:24 AM 37.8°F3.2°C 36.0°F2.2°C 94% 1.0 mph WSW1.6 kmh WSW 15.0 mph24.1 kmh 30.16 in1021.3 mb 0.00 in0.0 mm 0.00 in0.0 mm 0.03 in0.8 mm
04:19 AM 37.9°F3.3°C 36.0°F2.2°C 94% 1.0 mph WNW1.6 kmh WNW 15.0 mph24.1 kmh 30.16 in1021.3 mb 0.00 in0.0 mm 0.00 in0.0 mm 0.03 in0.8 mm
04:14 AM 38.0°F3.3°C 37.0°F2.8°C 94% 1.0 mph SW1.6 kmh SW 15.0 mph24.1 kmh 30.16 in1021.3 mb 0.00 in0.0 mm 0.00 in0.0 mm 0.03 in0.8 mm
04:09 AM 38.2°F3.4°C 37.0°F2.8°C 94% 2.0 mph WSW3.2 kmh WSW 15.0 mph24.1 kmh 30.16 in1021.3 mb 0.00 in0.0 mm 0.00 in0.0 mm 0.03 in0.8 mm
04:04 AM 38.3°F3.5°C 37.0°F2.8°C 94% 2.0 mph WSW3.2 kmh WSW 15.0 mph24.1 kmh 30.16 in1021.3 mb 0.00 in0.0 mm 0.00 in0.0 mm 0.03 in0.8 mm
03:59 AM 38.3°F3.5°C 37.0°F2.8°C 94% 1.0 mph WSW1.6 kmh WSW 15.0 mph24.1 kmh 30.16 in1021.3 mb 0.00 in0.0 mm 0.00 in0.0 mm 0.03 in0.8 mm
03:54 AM 38.5°F3.6°C 37.0°F2.8°C 94% 3.0 mph SSW4.8 kmh SSW 15.0 mph24.1 kmh 30.16 in1021.3 mb 0.00 in0.0 mm 0.00 in0.0 mm 0.03 in0.8 mm
03:49 AM 38.6°F3.7°C 37.0°F2.8°C 94% 5.0 mph SW8.0 kmh SW 15.0 mph24.1 kmh 30.16 in1021.3 mb 0.00 in0.0 mm 0.00 in0.0 mm 0.03 in0.8 mm
03:44 AM 38.8°F3.8°C 37.0°F2.8°C 94% 2.0 mph W3.2 kmh W 15.0 mph24.1 kmh 30.16 in1021.3 mb 0.00 in0.0 mm 0.00 in0.0 mm 0.03 in0.8 mm
03:39 AM 39.1°F3.9°C 38.0°F3.3°C 94% 2.0 mph SW3.2 kmh SW 15.0 mph24.1 kmh 30.16 in1021.3 mb 0.00 in0.0 mm 0.00 in0.0 mm 0.03 in0.8 mm
03:34 AM 39.3°F4.1°C 38.0°F3.3°C 94% 3.0 mph SW4.8 kmh SW 15.0 mph24.1 kmh 30.15 in1021.0 mb 0.00 in0.0 mm 0.00 in0.0 mm 0.03 in0.8 mm
03:29 AM 39.4°F4.1°C 38.0°F3.3°C 94% 5.0 mph SW8.0 kmh SW 15.0 mph24.1 kmh 30.15 in1021.0 mb 0.00 in0.0 mm 0.00 in0.0 mm 0.03 in0.8 mm
03:24 AM 39.4°F4.1°C 38.0°F3.3°C 94% 3.0 mph S4.8 kmh S 15.0 mph24.1 kmh 30.15 in1021.0 mb 0.00 in0.0 mm 0.00 in0.0 mm 0.03 in0.8 mm
03:19 AM 39.4°F4.1°C 38.0°F3.3°C 94% 5.0 mph SW8.0 kmh SW 15.0 mph24.1 kmh 30.15 in1021.0 mb 0.00 in0.0 mm 0.00 in0.0 mm 0.03 in0.8 mm
03:14 AM 39.5°F4.2°C 38.0°F3.3°C 94% 3.0 mph SW4.8 kmh SW 15.0 mph24.1 kmh 30.15 in1021.0 mb 0.00 in0.0 mm 0.00 in0.0 mm 0.03 in0.8 mm
03:09 AM 39.5°F4.2°C 38.0°F3.3°C 94% 5.0 mph WSW8.0 kmh WSW 15.0 mph24.1 kmh 30.15 in1021.0 mb 0.00 in0.0 mm 0.00 in0.0 mm 0.03 in0.8 mm
03:04 AM 39.6°F4.2°C 38.0°F3.3°C 94% 3.0 mph W4.8 kmh W 15.0 mph24.1 kmh 30.15 in1021.0 mb 0.00 in0.0 mm 0.00 in0.0 mm 0.03 in0.8 mm
02:59 AM 39.6°F4.2°C 38.0°F3.3°C 94% 7.0 mph SW11.3 kmh SW 15.0 mph24.1 kmh 30.15 in1021.0 mb 0.00 in0.0 mm 0.00 in0.0 mm 0.03 in0.8 mm
02:54 AM 39.6°F4.2°C 38.0°F3.3°C 94% 4.0 mph SW6.4 kmh SW 15.0 mph24.1 kmh 30.14 in1020.7 mb 0.00 in0.0 mm 0.00 in0.0 mm 0.03 in0.8 mm
02:49 AM 39.7°F4.3°C 38.0°F3.3°C 93% 3.0 mph WSW4.8 kmh WSW 15.0 mph24.1 kmh 30.15 in1021.0 mb 0.00 in0.0 mm 0.00 in0.0 mm 0.03 in0.8 mm
02:44 AM 39.8°F4.3°C 38.0°F3.3°C 93% 5.0 mph SW8.0 kmh SW 15.0 mph24.1 kmh 30.14 in1020.7 mb 0.00 in0.0 mm 0.00 in0.0 mm 0.03 in0.8 mm
02:39 AM 39.9°F4.4°C 38.0°F3.3°C 93% 7.0 mph WSW11.3 kmh WSW 15.0 mph24.1 kmh 30.14 in1020.7 mb 0.04 in1.0 mm 0.00 in0.0 mm 0.03 in0.8 mm
02:34 AM 40.0°F4.4°C 38.0°F3.3°C 93% 3.0 mph WSW4.8 kmh WSW 15.0 mph24.1 kmh 30.14 in1020.7 mb 0.06 in1.5 mm 0.00 in0.0 mm 0.03 in0.8 mm
02:29 AM 40.1°F4.5°C 38.0°F3.3°C 93% 6.0 mph SW9.7 kmh SW 15.0 mph24.1 kmh 30.14 in1020.7 mb 0.06 in1.5 mm 0.19 in4.8 mm 0.03 in0.8 mm
02:24 AM 40.4°F4.7°C 39.0°F3.9°C 93% 8.0 mph SW12.9 kmh SW 15.0 mph24.1 kmh 30.14 in1020.7 mb 0.05 in1.3 mm 0.00 in0.0 mm 0.02 in0.5 mm
02:19 AM 40.6°F4.8°C 39.0°F3.9°C 93% 8.0 mph SW12.9 kmh SW 15.0 mph24.1 kmh 30.14 in1020.7 mb 0.05 in1.3 mm 0.00 in0.0 mm 0.02 in0.5 mm
02:14 AM 40.6°F4.8°C 39.0°F3.9°C 93% 2.0 mph W3.2 kmh W 15.0 mph24.1 kmh 30.14 in1020.7 mb 0.09 in2.3 mm 0.00 in0.0 mm 0.02 in0.5 mm
02:09 AM 40.6°F4.8°C 39.0°F3.9°C 93% 4.0 mph SW6.4 kmh SW 14.0 mph22.5 kmh 30.13 in1020.3 mb 0.24 in6.1 mm 2.83 in71.9 mm 0.01 in0.3 mm
02:04 AM 40.6°F4.8°C 39.0°F3.9°C 93% 3.0 mph WSW4.8 kmh WSW 14.0 mph22.5 kmh 30.13 in1020.3 mb 0.00 in0.0 mm 0.00 in0.0 mm 0.00 in0.0 mm
01:59 AM 40.5°F4.7°C 39.0°F3.9°C 93% 5.0 mph SW8.0 kmh SW 14.0 mph22.5 kmh 30.12 in1020.0 mb 0.00 in0.0 mm 0.00 in0.0 mm 0.00 in0.0 mm
01:54 AM 40.4°F4.7°C 39.0°F3.9°C 93% 8.0 mph SW12.9 kmh SW 12.0 mph19.3 kmh 30.12 in1020.0 mb 0.00 in0.0 mm 0.00 in0.0 mm 0.00 in0.0 mm
01:49 AM 40.2°F4.6°C 38.0°F3.3°C 93% 4.0 mph SW6.4 kmh SW 12.0 mph19.3 kmh 30.12 in1020.0 mb 0.00 in0.0 mm 0.00 in0.0 mm 0.00 in0.0 mm
01:44 AM 40.1°F4.5°C 38.0°F3.3°C 93% 6.0 mph SW9.7 kmh SW 12.0 mph19.3 kmh 30.12 in1020.0 mb 0.00 in0.0 mm 0.00 in0.0 mm 0.00 in0.0 mm
01:39 AM 39.9°F4.4°C 38.0°F3.3°C 93% 5.0 mph WSW8.0 kmh WSW 12.0 mph19.3 kmh 30.12 in1020.0 mb 0.00 in0.0 mm 0.00 in0.0 mm 0.00 in0.0 mm
01:34 AM 39.5°F4.2°C 38.0°F3.3°C 93% 5.0 mph WSW8.0 kmh WSW 12.0 mph19.3 kmh 30.12 in1020.0 mb 0.00 in0.0 mm 0.00 in0.0 mm 0.00 in0.0 mm
01:29 AM 39.1°F3.9°C 37.0°F2.8°C 92% 6.0 mph SSW9.7 kmh SSW 12.0 mph19.3 kmh 30.11 in1019.6 mb 0.00 in0.0 mm 0.00 in0.0 mm 0.00 in0.0 mm
01:24 AM 38.9°F3.8°C 37.0°F2.8°C 92% 4.0 mph WSW6.4 kmh WSW 12.0 mph19.3 kmh 30.12 in1020.0 mb 0.00 in0.0 mm 0.00 in0.0 mm 0.00 in0.0 mm
01:19 AM 39.0°F3.9°C 37.0°F2.8°C 91% 3.0 mph WSW4.8 kmh WSW 12.0 mph19.3 kmh 30.12 in1020.0 mb 0.00 in0.0 mm 0.00 in0.0 mm 0.00 in0.0 mm
01:14 AM 39.3°F4.1°C 37.0°F2.8°C 91% 1.0 mph N1.6 kmh N 12.0 mph19.3 kmh 30.12 in1020.0 mb 0.00 in0.0 mm 0.00 in0.0 mm 0.00 in0.0 mm
01:09 AM 39.6°F4.2°C 37.0°F2.8°C 91% 2.0 mph SW3.2 kmh SW 12.0 mph19.3 kmh 30.11 in1019.6 mb 0.00 in0.0 mm 0.00 in0.0 mm 0.00 in0.0 mm
01:04 AM 39.8°F4.3°C 37.0°F2.8°C 91% 5.0 mph S8.0 kmh S 9.0 mph14.5 kmh 30.11 in1019.6 mb 0.00 in0.0 mm 0.00 in0.0 mm 0.00 in0.0 mm
12:59 AM 40.0°F4.4°C 38.0°F3.3°C 91% 5.0 mph SW8.0 kmh SW 30.0 mph48.3 kmh 30.11 in1019.6 mb 0.00 in0.0 mm 0.00 in0.0 mm 0.05 in1.3 mm
12:54 AM 40.1°F4.5°C 38.0°F3.3°C 91% 4.0 mph SW6.4 kmh SW 30.0 mph48.3 kmh 30.11 in1019.6 mb 0.00 in0.0 mm 0.00 in0.0 mm 0.05 in1.3 mm
12:49 AM 40.3°F4.6°C 38.0°F3.3°C 91% 7.0 mph SW11.3 kmh SW 30.0 mph48.3 kmh 30.11 in1019.6 mb 0.00 in0.0 mm 0.00 in0.0 mm 0.05 in1.3 mm
12:44 AM 40.5°F4.7°C 38.0°F3.3°C 92% 7.0 mph WSW11.3 kmh WSW 30.0 mph48.3 kmh 30.11 in1019.6 mb 0.00 in0.0 mm 0.00 in0.0 mm 0.05 in1.3 mm
12:39 AM 40.7°F4.8°C 38.0°F3.3°C 91% 4.0 mph SW6.4 kmh SW 30.0 mph48.3 kmh 30.11 in1019.6 mb 0.00 in0.0 mm 0.00 in0.0 mm 0.05 in1.3 mm
12:34 AM 40.8°F4.9°C 38.0°F3.3°C 91% 4.0 mph WSW6.4 kmh WSW 30.0 mph48.3 kmh 30.11 in1019.6 mb 0.00 in0.0 mm 0.00 in0.0 mm 0.05 in1.3 mm
12:29 AM 40.8°F4.9°C 38.0°F3.3°C 91% 11.0 mph SSW17.7 kmh SSW 30.0 mph48.3 kmh 30.11 in1019.6 mb 0.00 in0.0 mm 0.00 in0.0 mm 0.05 in1.3 mm
12:24 AM 40.9°F4.9°C 38.0°F3.3°C 90% 5.0 mph SW8.0 kmh SW 30.0 mph48.3 kmh 30.11 in1019.6 mb 0.00 in0.0 mm 0.00 in0.0 mm 0.05 in1.3 mm
12:19 AM 41.1°F5.1°C 38.0°F3.3°C 90% 11.0 mph WSW17.7 kmh WSW 30.0 mph48.3 kmh 30.11 in1019.6 mb 0.00 in0.0 mm 0.00 in0.0 mm 0.05 in1.3 mm
12:14 AM 41.1°F5.1°C 38.0°F3.3°C 90% 5.0 mph WSW8.0 kmh WSW 30.0 mph48.3 kmh 30.11 in1019.6 mb 0.00 in0.0 mm 0.00 in0.0 mm 0.05 in1.3 mm
12:09 AM 41.0°F5.0°C 38.0°F3.3°C 90% 11.0 mph SW17.7 kmh SW 30.0 mph48.3 kmh 30.11 in1019.6 mb 0.00 in0.0 mm 0.00 in0.0 mm 0.05 in1.3 mm
12:04 AM 41.0°F5.0°C 38.0°F3.3°C 90% 7.0 mph SW11.3 kmh SW 30.0 mph48.3 kmh 30.11 in1019.6 mb 0.00 in0.0 mm 0.00 in0.0 mm 0.05 in1.3 mm